createdAt,value
2017-11-10T00:00:59.306Z,74.12
2017-11-10T00:03:29.094Z,72.97
2017-11-10T00:05:58.820Z,79.95
2017-11-10T00:08:28.556Z,84.62
2017-11-10T00:10:58.317Z,86.45
2017-11-10T00:13:28.780Z,82.43
2017-11-10T00:15:58.353Z,80.70
2017-11-10T00:18:28.810Z,83.57
2017-11-10T00:20:58.389Z,83.78
2017-11-10T00:23:28.855Z,85.87
2017-11-10T00:25:58.596Z,77.85
2017-11-10T00:28:28.304Z,81.30
2017-11-10T00:30:58.148Z,82.03
2017-11-10T00:33:27.856Z,83.12
2017-11-10T00:35:57.695Z,84.40
2017-11-10T00:38:28.164Z,82.32
2017-11-10T00:40:57.991Z,77.68
2017-11-10T00:43:27.669Z,80.82
2017-11-10T00:45:57.406Z,73.35
2017-11-10T00:48:27.076Z,78.80
2017-11-10T00:50:57.552Z,80.15
2017-11-10T00:53:27.226Z,77.68
2017-11-10T00:55:57.054Z,76.12
2017-11-10T00:58:26.731Z,77.15
2017-11-10T01:00:57.226Z,77.62
2017-11-10T01:03:26.915Z,84.85
2017-11-10T01:05:56.649Z,86.12
2017-11-10T01:08:26.308Z,86.60
2017-11-10T01:10:56.042Z,89.75
2017-11-10T01:13:25.770Z,85.87
2017-11-10T01:15:55.443Z,77.68
2017-11-10T01:18:25.149Z,83.93
2017-11-10T01:20:54.816Z,85.68
2017-11-10T01:23:24.529Z,78.25
2017-11-10T01:25:54.213Z,86.32
2017-11-10T01:28:23.931Z,84.22
2017-11-10T01:30:53.629Z,79.55
2017-11-10T01:33:23.345Z,83.95
2017-11-10T01:35:53.013Z,85.25
2017-11-10T01:38:22.828Z,79.47
2017-11-10T01:40:52.150Z,87.37
2017-11-10T01:43:21.878Z,93.50
2017-11-10T01:45:51.012Z,93.60
2017-11-10T01:48:23.468Z,100.87
2017-11-10T01:50:53.172Z,96.20
2017-11-10T01:53:22.887Z,91.30
2017-11-10T01:55:52.578Z,98.87
2017-11-10T01:58:21.936Z,107.37
2017-11-10T02:00:51.287Z,105.15
2017-11-10T02:03:20.572Z,105.45
2017-11-10T02:05:49.969Z,95.75
2017-11-10T02:08:19.667Z,126.50
2017-11-10T02:10:49.379Z,109.87
2017-11-10T02:13:19.064Z,112.95
2017-11-10T02:15:49.551Z,99.85
2017-11-10T02:18:19.262Z,118.07
2017-11-10T02:20:48.620Z,123.80
2017-11-10T02:23:17.958Z,124.38
2017-11-10T02:25:47.327Z,119.53
2017-11-10T02:28:17.465Z,108.30
2017-11-10T02:30:46.267Z,102.15
2017-11-10T02:33:15.263Z,105.78
2017-11-10T02:35:44.653Z,105.70
2017-11-10T02:38:13.669Z,93.35
2017-11-10T02:40:43.389Z,100.18
2017-11-10T02:43:13.104Z,111.68
2017-11-10T02:45:42.789Z,93.75
2017-11-10T02:48:12.488Z,100.95
2017-11-10T02:50:41.982Z,94.05
2017-11-10T02:53:12.279Z,109.80
2017-11-10T02:55:41.971Z,105.47
2017-11-10T02:58:11.680Z,92.88
2017-11-10T03:00:41.036Z,92.70
2017-11-10T03:03:10.511Z,95.18
2017-11-10T03:05:40.239Z,97.53
2017-11-10T03:08:10.327Z,95.38
2017-11-10T03:10:39.352Z,88.80
2017-11-10T03:13:08.904Z,94.57
2017-11-10T03:15:37.856Z,98.85
2017-11-10T03:18:07.036Z,93.25
2017-11-10T03:20:36.019Z,90.15
2017-11-10T03:23:05.760Z,94.20
2017-11-10T03:25:36.006Z,91.68
2017-11-10T03:28:05.158Z,92.22
2017-11-10T03:30:34.325Z,79.47
2017-11-10T03:33:03.664Z,78.35
2017-11-10T03:35:32.991Z,81.22
2017-11-10T03:38:03.555Z,81.03
2017-11-10T03:40:33.232Z,82.68
2017-11-10T03:43:03.815Z,83.15
2017-11-10T03:45:32.610Z,70.72
2017-11-10T03:48:02.103Z,83.15
2017-11-10T03:50:31.926Z,87.62
2017-11-10T03:53:01.413Z,85.93
2017-11-10T03:55:30.731Z,81.45
2017-11-10T03:58:00.444Z,91.82
2017-11-10T04:00:30.129Z,82.25
2017-11-10T04:02:59.284Z,74.55
2017-11-10T04:05:29.006Z,70.68
2017-11-10T04:07:58.696Z,80.70
2017-11-10T04:10:27.697Z,78.28
2017-11-10T04:12:58.133Z,77.78
2017-11-10T04:15:28.345Z,80.20
2017-11-10T04:17:58.442Z,73.25
2017-11-10T04:20:27.807Z,71.07
2017-11-10T04:22:57.279Z,79.43
2017-11-10T04:25:27.768Z,86.18
2017-11-10T04:27:56.896Z,86.00
2017-11-10T04:30:27.038Z,78.78
2017-11-10T04:32:56.719Z,84.82
2017-11-10T04:35:27.222Z,79.22
2017-11-10T04:37:56.554Z,92.22
2017-11-10T04:40:27.135Z,76.05
2017-11-10T04:42:56.813Z,83.93
2017-11-10T04:45:27.391Z,82.35
2017-11-10T04:47:57.084Z,74.03
2017-11-10T04:50:26.135Z,81.25
2017-11-10T04:52:56.419Z,74.40
2017-11-10T04:55:25.895Z,85.20
2017-11-10T04:57:54.902Z,80.00
2017-11-10T05:00:24.050Z,79.80
2017-11-10T05:02:53.195Z,83.40
2017-11-10T05:05:22.871Z,84.15
2017-11-10T05:07:53.362Z,81.60
2017-11-10T05:10:23.035Z,92.05
2017-11-10T05:12:52.524Z,86.15
2017-11-10T05:15:22.225Z,86.60
2017-11-10T05:17:51.895Z,97.82
2017-11-10T05:20:21.586Z,95.10
2017-11-10T05:22:50.948Z,98.82
2017-11-10T05:25:20.871Z,105.32
2017-11-10T05:27:50.069Z,94.32
2017-11-10T05:30:19.201Z,85.57
2017-11-10T05:32:48.695Z,88.20
2017-11-10T05:35:17.903Z,97.68
2017-11-10T05:37:46.887Z,92.55
2017-11-10T05:40:16.173Z,89.50
2017-11-10T05:42:45.479Z,83.75
2017-11-10T05:45:14.691Z,84.72
2017-11-10T05:47:44.429Z,90.62
2017-11-10T05:50:13.598Z,82.57
2017-11-10T05:52:43.089Z,73.55
2017-11-10T05:55:12.598Z,90.32
2017-11-10T05:57:41.933Z,96.05
2017-11-10T06:00:10.742Z,88.10
2017-11-10T06:02:39.541Z,101.62
2017-11-10T06:05:09.134Z,94.40
2017-11-10T06:07:37.939Z,94.30
2017-11-10T06:10:06.923Z,86.22
2017-11-10T06:12:36.655Z,84.68
2017-11-10T06:15:06.758Z,89.20
2017-11-10T06:17:36.131Z,85.68
2017-11-10T06:20:05.798Z,88.47
2017-11-10T06:22:36.020Z,84.65
2017-11-10T06:25:05.017Z,82.15
2017-11-10T06:27:34.347Z,91.97
2017-11-10T06:30:03.358Z,85.40
2017-11-10T06:32:32.737Z,77.72
2017-11-10T06:35:01.726Z,87.97
2017-11-10T06:37:31.058Z,79.95
2017-11-10T06:40:00.427Z,77.68
2017-11-10T06:42:30.912Z,82.43
2017-11-10T06:45:00.421Z,75.57
2017-11-10T06:47:29.739Z,88.65
2017-11-10T06:49:59.427Z,93.35
2017-11-10T06:52:29.136Z,87.80
2017-11-10T06:54:59.243Z,82.32
2017-11-10T06:57:28.952Z,80.05
2017-11-10T06:59:58.320Z,85.22
2017-11-10T07:02:27.661Z,79.70
2017-11-10T07:04:57.167Z,81.80
2017-11-10T07:07:26.876Z,70.62
2017-11-10T07:09:56.385Z,77.70
2017-11-10T07:12:25.865Z,82.20
2017-11-10T07:14:55.604Z,78.12
2017-11-10T07:17:25.311Z,74.55
2017-11-10T07:19:54.855Z,78.20
2017-11-10T07:22:24.552Z,85.85
2017-11-10T07:24:54.422Z,79.90
2017-11-10T07:27:24.945Z,75.40
2017-11-10T07:29:54.612Z,74.68
2017-11-10T07:32:24.424Z,75.90
2017-11-10T07:34:54.231Z,74.80
2017-11-10T07:37:23.944Z,76.93
2017-11-10T07:39:53.636Z,75.85
2017-11-10T07:42:23.346Z,73.05
2017-11-10T07:44:53.052Z,73.75
2017-11-10T07:47:22.751Z,74.95
2017-11-10T07:49:52.663Z,72.10
2017-11-10T07:52:23.095Z,77.47
2017-11-10T07:54:52.790Z,62.15
2017-11-10T07:57:23.102Z,72.53
2017-11-10T07:59:53.370Z,73.22
2017-11-10T08:02:22.909Z,73.43
2017-11-10T08:04:52.578Z,63.78
2017-11-10T08:07:22.286Z,77.65
2017-11-10T08:09:51.767Z,75.57
2017-11-10T08:12:22.335Z,78.32
2017-11-10T08:14:52.008Z,70.95
2017-11-10T08:17:22.486Z,71.47
2017-11-10T08:19:52.167Z,65.07
2017-11-10T08:22:21.910Z,58.08
2017-11-10T08:24:51.590Z,67.50
2017-11-10T08:27:21.317Z,61.55
2017-11-10T08:29:51.077Z,67.25
2017-11-10T08:32:20.798Z,65.70
2017-11-10T08:34:50.883Z,58.63
2017-11-10T08:37:20.267Z,62.10
2017-11-10T08:39:49.583Z,66.62
2017-11-10T08:42:18.924Z,65.82
2017-11-10T08:44:48.305Z,57.72
2017-11-10T08:47:18.020Z,58.63
2017-11-10T08:49:47.752Z,65.18
2017-11-10T08:52:18.275Z,59.63
2017-11-10T08:54:47.952Z,52.25
2017-11-10T08:57:17.679Z,55.72
2017-11-10T08:59:47.373Z,51.35
2017-11-10T09:02:17.602Z,52.67
2017-11-10T09:04:49.070Z,57.67
2017-11-10T09:07:19.056Z,52.15
2017-11-10T09:09:48.603Z,55.58
2017-11-10T09:12:19.660Z,54.80
2017-11-10T09:14:51.695Z,53.53
2017-11-10T09:17:22.872Z,48.22
2017-11-10T09:19:52.493Z,44.63
2017-11-10T09:22:22.034Z,50.33
2017-11-10T09:24:58.803Z,54.65
2017-11-10T09:27:30.309Z,58.10
2017-11-10T09:30:14.031Z,49.92
2017-11-10T09:32:49.657Z,48.53
2017-11-10T09:38:34.259Z,41.63
2017-11-10T09:41:08.989Z,48.67
2017-11-10T09:43:40.429Z,45.05
2017-11-10T09:46:15.780Z,49.65
2017-11-10T09:48:50.568Z,57.47
2017-11-10T09:51:23.457Z,45.88
2017-11-10T09:53:53.424Z,48.33
2017-11-10T09:59:21.202Z,41.92
2017-11-10T10:01:55.069Z,51.40
2017-11-10T10:04:30.076Z,37.13
2017-11-10T10:07:04.387Z,42.95
2017-11-10T10:12:58.036Z,35.22
2017-11-10T10:15:48.373Z,36.17
2017-11-10T10:18:20.087Z,37.85
2017-11-10T10:20:55.392Z,40.55
2017-11-10T10:23:25.669Z,39.53
2017-11-10T10:25:55.196Z,35.55
2017-11-10T10:28:24.869Z,40.97
2017-11-10T10:30:54.242Z,39.40
2017-11-10T10:33:24.722Z,36.38
2017-11-10T10:35:54.062Z,37.13
2017-11-10T10:38:23.387Z,31.08
2017-11-10T10:40:53.277Z,36.30
2017-11-10T10:43:22.811Z,34.00
2017-11-10T10:45:52.156Z,38.13
2017-11-10T10:48:21.929Z,28.92
2017-11-10T10:50:52.475Z,32.25
2017-11-10T10:53:22.225Z,33.63
2017-11-10T10:55:51.993Z,31.40
2017-11-10T10:58:22.021Z,33.17
2017-11-10T11:00:51.728Z,32.15
2017-11-10T11:03:22.213Z,30.17
2017-11-10T11:05:51.916Z,27.42
2017-11-10T11:08:22.367Z,29.45
2017-11-10T11:10:52.177Z,31.10
2017-11-10T11:13:21.958Z,23.83
2017-11-10T11:15:51.658Z,29.17
2017-11-10T11:18:21.327Z,27.55
2017-11-10T11:20:51.792Z,30.10
2017-11-10T11:23:21.285Z,24.92
2017-11-10T11:25:50.994Z,29.98
2017-11-10T11:28:20.817Z,25.17
2017-11-10T11:30:50.532Z,29.45
2017-11-10T11:33:20.225Z,26.27
2017-11-10T11:35:51.440Z,29.10
2017-11-10T11:38:21.138Z,25.77
2017-11-10T11:40:51.740Z,24.98
2017-11-10T11:43:22.246Z,25.30
2017-11-10T11:45:51.967Z,25.37
2017-11-10T11:48:21.647Z,26.90
2017-11-10T11:50:51.513Z,23.70
2017-11-10T11:53:20.855Z,26.05
2017-11-10T11:55:50.210Z,25.15
2017-11-10T11:58:20.072Z,23.95
2017-11-10T12:00:49.280Z,28.55
2017-11-10T12:03:19.559Z,23.17
2017-11-10T12:05:50.015Z,22.23
2017-11-10T12:08:20.466Z,24.50
2017-11-10T12:10:51.418Z,22.52
2017-11-10T12:13:21.927Z,21.50
2017-11-10T12:15:51.492Z,21.67
2017-11-10T12:18:21.805Z,19.75
2017-11-10T12:20:50.783Z,23.70
2017-11-10T12:23:19.388Z,22.58
2017-11-10T12:25:48.350Z,22.58
2017-11-10T12:28:18.500Z,18.60
2017-11-10T12:30:47.442Z,23.87
2017-11-10T12:33:16.793Z,24.45
2017-11-10T12:35:46.747Z,26.65
2017-11-10T12:38:16.527Z,26.58
2017-11-10T12:40:46.333Z,23.80
2017-11-10T12:43:15.963Z,25.17
2017-11-10T12:45:44.981Z,22.95
2017-11-10T12:48:14.326Z,31.05
2017-11-10T12:50:44.977Z,30.15
2017-11-10T12:53:15.111Z,35.13
2017-11-10T12:55:44.632Z,31.62
2017-11-10T12:58:13.990Z,26.65
2017-11-10T13:00:44.301Z,32.97
2017-11-10T13:03:13.718Z,31.95
2017-11-10T13:05:42.715Z,29.08
2017-11-10T13:08:11.865Z,26.37
2017-11-10T13:10:41.779Z,33.97
2017-11-10T13:13:11.465Z,36.00
2017-11-10T13:15:42.166Z,29.77
2017-11-10T13:18:11.500Z,30.15
2017-11-10T13:20:41.959Z,29.40
2017-11-10T13:23:11.448Z,27.45
2017-11-10T13:25:41.171Z,22.58
2017-11-10T13:28:10.873Z,28.98
2017-11-10T13:30:40.596Z,27.92
2017-11-10T13:33:10.498Z,24.63
2017-11-10T13:35:41.112Z,21.65
2017-11-10T13:38:10.827Z,22.17
2017-11-10T13:40:40.512Z,24.95
2017-11-10T13:43:10.252Z,23.48
2017-11-10T13:45:40.041Z,19.77
2017-11-10T13:48:09.761Z,27.02
2017-11-10T13:50:39.441Z,21.55
2017-11-10T13:53:09.189Z,16.98
2017-11-10T13:55:39.441Z,22.85
2017-11-10T13:58:09.991Z,18.17
2017-11-10T14:00:39.331Z,22.48
2017-11-10T14:03:09.097Z,17.42
2017-11-10T14:05:38.882Z,17.62
2017-11-10T14:08:08.432Z,17.60
2017-11-10T14:10:38.111Z,20.02
2017-11-10T14:13:08.609Z,16.80
2017-11-10T14:15:38.317Z,17.90
2017-11-10T14:18:08.639Z,19.12
2017-11-10T14:20:38.904Z,15.68
2017-11-10T14:23:08.561Z,18.25
2017-11-10T14:25:38.306Z,15.15
2017-11-10T14:28:08.810Z,18.37
2017-11-10T14:30:38.508Z,16.12
2017-11-10T14:33:08.231Z,12.65
2017-11-10T14:35:38.699Z,14.45
2017-11-10T14:38:08.642Z,14.98
2017-11-10T14:40:38.324Z,18.17
2017-11-10T14:43:08.026Z,18.73
2017-11-10T14:45:37.840Z,19.17
2017-11-10T14:48:08.423Z,15.93
2017-11-10T14:50:38.162Z,16.25
2017-11-10T14:53:08.610Z,18.52
2017-11-10T14:55:38.322Z,19.98
2017-11-10T14:58:08.893Z,17.25
2017-11-10T15:00:39.125Z,14.87
2017-11-10T15:03:08.796Z,14.65
2017-11-10T15:05:38.530Z,19.55
2017-11-10T15:08:08.212Z,18.52
2017-11-10T15:10:38.221Z,17.73
2017-11-10T15:13:07.836Z,16.85
2017-11-10T15:15:37.336Z,13.60
2017-11-10T15:18:06.323Z,21.15
2017-11-10T15:20:35.848Z,19.80
2017-11-10T15:23:05.534Z,19.33
2017-11-10T15:25:36.024Z,19.10
2017-11-10T15:28:05.379Z,16.60
2017-11-10T15:30:35.092Z,17.12
2017-11-10T15:33:05.564Z,15.90
2017-11-10T15:35:35.280Z,17.83
2017-11-10T15:38:04.266Z,13.30
2017-11-10T15:40:34.455Z,19.25
2017-11-10T15:43:04.066Z,17.92
2017-11-10T15:45:33.550Z,16.73
2017-11-10T15:48:03.366Z,17.45
2017-11-10T15:50:32.589Z,17.45
2017-11-10T15:53:03.541Z,16.23
2017-11-10T15:55:34.963Z,18.80
2017-11-10T15:58:04.931Z,18.20
2017-11-10T16:00:34.878Z,17.15
2017-11-10T16:03:04.617Z,17.00
2017-11-10T16:05:34.311Z,15.07
2017-11-10T16:08:04.641Z,14.45
2017-11-10T16:10:34.360Z,14.10
2017-11-10T16:13:04.977Z,17.45
2017-11-10T16:15:36.156Z,16.33
2017-11-10T16:18:05.544Z,20.50
2017-11-10T16:20:35.234Z,14.00
2017-11-10T16:23:04.588Z,14.27
2017-11-10T16:25:34.775Z,16.35
2017-11-10T16:28:04.143Z,12.35
2017-11-10T16:30:34.620Z,14.48
2017-11-10T16:33:04.342Z,12.50
2017-11-10T16:35:34.046Z,14.02
2017-11-10T16:38:03.831Z,18.62
2017-11-10T16:40:34.319Z,11.93
2017-11-10T16:43:04.167Z,13.95
2017-11-10T16:45:33.903Z,14.45
2017-11-10T16:48:03.615Z,15.23
2017-11-10T16:50:33.368Z,15.40
2017-11-10T16:53:03.192Z,15.18
2017-11-10T16:55:33.309Z,13.43
2017-11-10T16:58:04.847Z,13.77
2017-11-10T17:00:35.458Z,12.30
2017-11-10T17:03:06.918Z,15.43
2017-11-10T17:05:37.515Z,12.45
2017-11-10T17:08:07.058Z,13.07
2017-11-10T17:10:36.728Z,13.80
2017-11-10T17:13:07.025Z,12.20
2017-11-10T17:15:35.999Z,11.10
2017-11-10T17:18:05.677Z,11.23
2017-11-10T17:20:35.183Z,12.10
2017-11-10T17:23:04.909Z,11.85
2017-11-10T17:25:34.585Z,11.50
2017-11-10T17:28:04.322Z,12.60
2017-11-10T17:30:33.665Z,11.10
2017-11-10T17:33:04.040Z,15.63
2017-11-10T17:35:33.547Z,11.98
2017-11-10T17:38:03.043Z,10.90
2017-11-10T17:40:32.775Z,13.25
2017-11-10T17:43:02.444Z,13.25
2017-11-10T17:45:32.139Z,10.00
2017-11-10T17:48:01.808Z,11.90
2017-11-10T17:50:31.896Z,7.55
2017-11-10T17:53:01.064Z,9.20
2017-11-10T17:55:30.167Z,8.82
2017-11-10T17:57:59.600Z,8.35
2017-11-10T18:00:29.863Z,6.57
2017-11-10T18:02:59.343Z,7.70
2017-11-10T18:05:28.775Z,5.07
2017-11-10T18:07:59.529Z,6.32
2017-11-10T18:10:28.948Z,8.10
2017-11-10T18:12:58.648Z,6.95
2017-11-10T18:15:28.016Z,5.87
2017-11-10T18:17:58.150Z,6.28
2017-11-10T18:20:27.218Z,3.28
2017-11-10T18:22:57.363Z,4.00
2017-11-10T18:25:26.800Z,7.10
2017-11-10T18:27:55.981Z,5.43
2017-11-10T18:30:26.123Z,4.82
2017-11-10T18:32:56.597Z,8.35
2017-11-10T18:35:26.104Z,5.72
2017-11-10T18:37:55.254Z,6.93
2017-11-10T18:40:24.862Z,11.55
2017-11-10T18:42:55.131Z,7.75
2017-11-10T18:45:24.579Z,6.43
2017-11-10T18:47:54.309Z,6.20
2017-11-10T18:50:23.657Z,7.78
2017-11-10T18:52:52.754Z,8.68
2017-11-10T18:55:27.516Z,5.70
2017-11-10T18:57:57.286Z,6.22
2017-11-10T19:00:26.604Z,4.18
2017-11-10T19:02:55.950Z,7.28
2017-11-10T19:05:26.407Z,12.43
2017-11-10T19:07:55.198Z,12.85
2017-11-10T19:10:24.672Z,8.20
2017-11-10T19:12:54.419Z,7.32
2017-11-10T19:15:24.093Z,9.35
2017-11-10T19:17:53.826Z,12.57
2017-11-10T19:20:24.001Z,11.12
2017-11-10T19:22:53.714Z,8.98
2017-11-10T19:25:23.139Z,6.75
2017-11-10T19:27:53.630Z,6.78
2017-11-10T19:30:23.012Z,12.45
2017-11-10T19:32:52.724Z,9.50
2017-11-10T19:35:22.411Z,9.80
2017-11-10T19:37:52.130Z,7.20
2017-11-10T19:40:21.892Z,6.00
2017-11-10T19:42:51.326Z,5.95
2017-11-10T19:45:20.862Z,14.87
2017-11-10T19:47:51.647Z,6.87
2017-11-10T19:50:21.968Z,8.85
2017-11-10T19:52:52.003Z,8.93
2017-11-10T19:55:21.901Z,8.20
2017-11-10T19:57:51.717Z,9.85
2017-11-10T20:00:21.633Z,5.15
2017-11-10T20:02:51.186Z,5.78
2017-11-10T20:05:21.462Z,8.18
2017-11-10T20:07:51.274Z,9.70
2017-11-10T20:10:21.189Z,5.97
2017-11-10T20:12:51.306Z,5.80
2017-11-10T20:15:21.322Z,7.65
2017-11-10T20:17:51.350Z,5.70
2017-11-10T20:20:21.468Z,9.45
2017-11-10T20:22:51.689Z,10.30
2017-11-10T20:25:21.462Z,4.43
2017-11-10T20:27:51.150Z,7.25
2017-11-10T20:30:20.886Z,8.20
2017-11-10T20:32:51.357Z,12.57
2017-11-10T20:35:21.132Z,8.32
2017-11-10T20:37:50.804Z,5.60
2017-11-10T20:40:21.336Z,5.80
2017-11-10T20:42:52.515Z,4.12
2017-11-10T20:45:22.818Z,8.95
2017-11-10T20:47:52.328Z,10.18
2017-11-10T20:50:22.818Z,5.72
2017-11-10T20:52:52.502Z,8.40
2017-11-10T20:55:22.228Z,8.45
2017-11-10T20:57:51.905Z,8.02
2017-11-10T21:00:22.409Z,5.60
2017-11-10T21:02:52.680Z,5.78
2017-11-10T21:05:22.628Z,6.93
2017-11-10T21:07:52.372Z,6.87
2017-11-10T21:10:22.844Z,9.32
2017-11-10T21:12:52.518Z,12.15
2017-11-10T21:15:22.995Z,6.50
2017-11-10T21:17:52.498Z,11.50
2017-11-10T21:20:21.837Z,9.52
2017-11-10T21:22:51.390Z,11.32
2017-11-10T21:25:21.047Z,8.82
2017-11-10T21:27:50.753Z,7.05
2017-11-10T21:30:20.419Z,10.32
2017-11-10T21:32:50.143Z,13.40
2017-11-10T21:35:19.795Z,7.55
2017-11-10T21:37:50.263Z,7.43
2017-11-10T21:40:19.976Z,9.65
2017-11-10T21:42:49.685Z,5.82
2017-11-10T21:45:19.406Z,6.28
2017-11-10T21:47:49.129Z,8.50
2017-11-10T21:50:18.882Z,11.40
2017-11-10T21:52:49.324Z,9.70
2017-11-10T21:55:19.641Z,10.65
2017-11-10T21:57:49.905Z,6.20
2017-11-10T22:00:19.732Z,12.23
2017-11-10T22:02:49.432Z,8.38
2017-11-10T22:05:19.126Z,8.57
2017-11-10T22:07:49.702Z,12.15
2017-11-10T22:10:19.451Z,9.13
2017-11-10T22:12:49.994Z,10.13
2017-11-10T22:15:20.265Z,11.15
2017-11-10T22:17:49.991Z,11.15
2017-11-10T22:20:19.660Z,7.87
2017-11-10T22:22:49.378Z,7.43
2017-11-10T22:25:19.033Z,11.35
2017-11-10T22:27:48.749Z,9.43
2017-11-10T22:30:18.414Z,9.02
2017-11-10T22:32:48.102Z,8.48
2017-11-10T22:35:18.814Z,6.47
2017-11-10T22:37:49.307Z,15.32
2017-11-10T22:40:18.975Z,6.15
2017-11-10T22:42:48.707Z,9.80
2017-11-10T22:45:18.379Z,3.85
2017-11-10T22:47:48.854Z,4.25
2017-11-10T22:50:18.532Z,9.77
2017-11-10T22:52:48.232Z,2.83
2017-11-10T22:55:18.678Z,6.25
2017-11-10T22:57:48.387Z,5.97
2017-11-10T23:00:18.052Z,5.12
2017-11-10T23:02:48.131Z,6.20
2017-11-10T23:05:17.794Z,4.05
2017-11-10T23:07:48.244Z,5.95
2017-11-10T23:10:17.728Z,3.78
2017-11-10T23:12:48.200Z,4.12
2017-11-10T23:15:17.855Z,5.15
2017-11-10T23:17:48.153Z,4.03
2017-11-10T23:20:17.886Z,7.10
2017-11-10T23:22:47.551Z,6.30
2017-11-10T23:25:17.307Z,4.25
2017-11-10T23:27:47.590Z,9.13
2017-11-10T23:30:17.319Z,6.45
2017-11-10T23:32:47.008Z,6.90
2017-11-10T23:35:16.701Z,5.53
2017-11-10T23:37:46.352Z,7.18
2017-11-10T23:40:16.044Z,10.70
2017-11-10T23:42:45.544Z,7.75
2017-11-10T23:45:15.254Z,10.48
2017-11-10T23:47:44.926Z,5.35
2017-11-10T23:50:15.400Z,4.47
2017-11-10T23:52:45.058Z,7.50
2017-11-10T23:55:15.552Z,7.15
2017-11-10T23:57:45.216Z,10.95
